Time;durP1;ratioP1;P1;durP2;ratioP2;P2;SDS_P1;SDS_P2;PMS_P1;PMS_P2;Temp;Humidity;BMP_temperature;BMP_pressure;BME280_temperature;BME280_humidity;BME280_pressure;Samples;Min_cycle;Max_cycle;Signal;HPM_P1;HPM_P2
2023/06/19 00:01:28;;;;;;;8.32;4.25;;;27.30;58.90;;;;;;5027621;28;20065;-55
2023/06/19 00:03:53;;;;;;;10.35;4.88;;;27.30;59.00;;;;;;5044211;28;20033;-55
2023/06/19 00:06:19;;;;;;;4.80;4.30;;;27.20;59.10;;;;;;5045401;28;20037;-55
2023/06/19 00:08:45;;;;;;;5.78;4.07;;;27.20;59.10;;;;;;5044065;28;20144;-54
2023/06/19 00:11:10;;;;;;;4.50;4.10;;;27.10;59.20;;;;;;5045436;28;20036;-54
2023/06/19 00:13:36;;;;;;;5.47;4.38;;;27.10;59.30;;;;;;5044127;28;20061;-54
2023/06/19 00:16:01;;;;;;;8.55;4.35;;;27.10;59.50;;;;;;5045390;28;20048;-54
2023/06/19 00:18:27;;;;;;;5.25;4.43;;;27.00;59.40;;;;;;5060329;28;20093;-54
2023/06/19 00:20:55;;;;;;;5.72;4.57;;;27.00;59.40;;;;;;5045039;28;20072;-54
2023/06/19 00:23:22;;;;;;;5.50;4.25;;;27.00;59.40;;;;;;5044970;28;20033;-54
2023/06/19 00:25:47;;;;;;;5.15;4.10;;;27.00;59.40;;;;;;5043591;28;20105;-54
2023/06/19 00:28:14;;;;;;;6.32;4.30;;;27.00;59.60;;;;;;5043724;28;20033;-54
2023/06/19 00:30:40;;;;;;;4.57;4.07;;;27.00;59.70;;;;;;5044269;28;20029;-52
2023/06/19 00:33:07;;;;;;;6.00;4.18;;;26.90;59.70;;;;;;5043425;28;20404;-54
2023/06/19 00:35:32;;;;;;;6.47;4.63;;;26.90;60.00;;;;;;5043995;28;20029;-55
2023/06/19 00:38:00;;;;;;;5.65;5.03;;;26.80;60.00;;;;;;5044280;28;20081;-54
2023/06/19 00:40:33;;;;;;;4.72;4.22;;;26.80;60.10;;;;;;5045501;28;20413;-54
2023/06/19 00:42:59;;;;;;;9.15;4.53;;;26.80;60.10;;;;;;5045476;28;20037;-55
2023/06/19 00:45:25;;;;;;;7.18;4.55;;;26.80;60.10;;;;;;5044725;28;20125;-54
2023/06/19 00:47:51;;;;;;;5.78;4.25;;;26.70;60.10;;;;;;5043086;28;20060;-54
2023/06/19 00:50:17;;;;;;;5.45;4.20;;;26.70;60.10;;;;;;5026659;28;20022;-54
2023/06/19 00:52:43;;;;;;;5.13;4.10;;;26.70;60.20;;;;;;5043143;28;20126;-54
2023/06/19 00:55:09;;;;;;;6.80;4.75;;;26.70;60.40;;;;;;5044730;28;20029;-54
2023/06/19 00:57:35;;;;;;;4.72;4.15;;;26.70;60.60;;;;;;5043274;28;20033;-54
2023/06/19 01:00:04;;;;;;;7.63;4.60;;;26.60;60.70;;;;;;5043378;28;20025;-54
2023/06/19 01:02:29;;;;;;;5.93;4.78;;;26.60;60.80;;;;;;5044973;28;20021;-54
2023/06/19 01:04:55;;;;;;;6.68;4.70;;;26.60;61.00;;;;;;5043936;28;20032;-54
2023/06/19 01:08:23;;;;;;;6.00;4.38;;;26.50;60.90;;;;;;5044174;28;20030;-54
2023/06/19 01:10:54;;;;;;;6.65;4.45;;;26.50;60.90;;;;;;5002954;28;20086;-54
2023/06/19 01:13:23;;;;;;;5.75;4.30;;;26.50;60.90;;;;;;4986305;28;20041;-54
2023/06/19 01:15:49;;;;;;;4.45;4.05;;;26.50;61.00;;;;;;5014896;28;20053;-54
2023/06/19 01:18:15;;;;;;;6.85;4.75;;;26.50;61.00;;;;;;5043040;28;20060;-54
2023/06/19 01:20:40;;;;;;;6.00;4.00;;;26.50;61.00;;;;;;5043066;28;20037;-54
2023/06/19 01:23:10;;;;;;;4.70;4.20;;;26.40;61.10;;;;;;5042921;28;20062;-54
2023/06/19 01:25:36;;;;;;;4.78;4.28;;;26.40;61.10;;;;;;5042844;28;20048;-55
2023/06/19 01:28:05;;;;;;;7.38;4.60;;;26.40;61.20;;;;;;5044368;28;20053;-55
2023/06/19 01:30:31;;;;;;;4.93;4.35;;;26.40;61.20;;;;;;5043016;28;20093;-54
2023/06/19 01:33:00;;;;;;;6.53;4.00;;;26.40;61.20;;;;;;5042917;28;20105;-54
2023/06/19 01:35:28;;;;;;;4.53;4.13;;;26.30;61.20;;;;;;5042874;28;20025;-54
2023/06/19 01:37:54;;;;;;;8.75;4.60;;;26.30;61.10;;;;;;5026254;28;20441;-55
2023/06/19 01:40:24;;;;;;;5.80;4.60;;;26.30;62.00;;;;;;5043050;28;20033;-54
2023/06/19 01:42:49;;;;;;;5.35;4.40;;;26.30;62.00;;;;;;5043058;28;20025;-54
2023/06/19 01:45:15;;;;;;;5.07;4.43;;;26.30;61.40;;;;;;5042896;28;20041;-54
2023/06/19 01:47:40;;;;;;;5.35;4.35;;;26.30;61.60;;;;;;5042664;28;20029;-54
2023/06/19 01:50:07;;;;;;;6.97;4.80;;;26.20;61.70;;;;;;5042904;28;20060;-54
2023/06/19 01:52:32;;;;;;;5.22;4.70;;;26.20;62.00;;;;;;5026182;28;20409;-55
2023/06/19 01:54:58;;;;;;;4.82;4.32;;;26.20;62.20;;;;;;5043098;28;20029;-54
2023/06/19 01:57:23;;;;;;;5.97;4.75;;;26.20;62.40;;;;;;5044974;28;20085;-54
2023/06/19 01:59:49;;;;;;;15.52;4.35;;;26.10;62.50;;;;;;5046413;28;20049;-54
2023/06/19 02:02:14;;;;;;;5.88;4.55;;;26.10;62.90;;;;;;5047628;28;20025;-54
2023/06/19 02:04:40;;;;;;;6.10;4.22;;;26.10;63.10;;;;;;5047653;28;20152;-54
2023/06/19 02:07:05;;;;;;;6.20;4.50;;;26.00;63.00;;;;;;5047549;28;20025;-54
2023/06/19 02:09:31;;;;;;;5.63;4.78;;;26.00;63.20;;;;;;5047580;28;20107;-55
2023/06/19 02:11:56;;;;;;;4.43;4.03;;;26.00;63.40;;;;;;5045899;28;20025;-55
2023/06/19 02:14:23;;;;;;;5.43;4.35;;;26.00;63.70;;;;;;5046053;28;20033;-55
2023/06/19 02:16:48;;;;;;;5.55;4.70;;;26.00;63.70;;;;;;5047270;28;20018;-55
2023/06/19 02:19:14;;;;;;;7.53;4.35;;;25.90;63.80;;;;;;5047483;28;20129;-55
2023/06/19 02:21:39;;;;;;;5.65;5.05;;;26.00;63.90;;;;;;5047410;28;20026;-55
2023/06/19 02:24:05;;;;;;;7.18;4.60;;;25.90;64.00;;;;;;5045915;28;20049;-54
2023/06/19 02:26:31;;;;;;;7.43;4.45;;;25.90;64.30;;;;;;5029192;28;20262;-54
2023/06/19 02:28:56;;;;;;;9.38;4.75;;;25.80;64.70;;;;;;5047351;28;20435;-53
2023/06/19 02:31:22;;;;;;;6.28;5.10;;;25.80;65.10;;;;;;5029028;28;20029;-54
2023/06/19 02:33:48;;;;;;;6.53;5.13;;;25.80;65.20;;;;;;5045726;28;20128;-54
2023/06/19 02:36:19;;;;;;;5.82;4.82;;;25.80;65.10;;;;;;5045726;28;20029;-54
2023/06/19 02:38:47;;;;;;;7.20;4.88;;;25.80;65.20;;;;;;5047064;28;20345;-54
2023/06/19 02:41:13;;;;;;;5.97;4.78;;;25.70;65.30;;;;;;5045695;28;20056;-55
2023/06/19 02:43:40;;;;;;;6.88;4.80;;;25.70;66.30;;;;;;5045508;28;20084;-55
2023/06/19 02:46:06;;;;;;;8.13;5.07;;;25.70;65.90;;;;;;5045660;28;20037;-56
2023/06/19 02:48:31;;;;;;;7.88;5.05;;;25.60;66.40;;;;;;5045756;28;20399;-55
2023/06/19 02:50:57;;;;;;;7.75;4.95;;;25.70;66.80;;;;;;5045243;28;20434;-55
2023/06/19 02:53:23;;;;;;;8.43;5.00;;;25.60;66.70;;;;;;5046570;28;20354;-55
2023/06/19 02:55:48;;;;;;;10.77;5.15;;;25.60;66.70;;;;;;5045297;28;20055;-55
2023/06/19 02:58:14;;;;;;;8.75;5.07;;;25.60;66.70;;;;;;5046601;28;20254;-55
2023/06/19 03:00:39;;;;;;;6.65;4.75;;;25.50;66.80;;;;;;5028698;28;20041;-55
2023/06/19 03:03:05;;;;;;;11.00;5.10;;;25.50;67.00;;;;;;5046451;28;20037;-55
2023/06/19 03:05:31;;;;;;;8.32;5.15;;;25.50;67.30;;;;;;5046435;28;20052;-55
2023/06/19 03:07:56;;;;;;;11.63;5.00;;;25.40;67.20;;;;;;5046527;28;20031;-55
2023/06/19 03:10:22;;;;;;;6.38;5.03;;;25.40;67.40;;;;;;5027267;28;20505;-55
2023/06/19 03:12:47;;;;;;;10.02;4.88;;;25.40;67.50;;;;;;5046139;28;20029;-55
2023/06/19 03:15:13;;;;;;;9.05;4.90;;;25.40;67.60;;;;;;5028364;28;20048;-55
2023/06/19 03:17:39;;;;;;;8.13;5.07;;;25.40;67.60;;;;;;5044825;28;20172;-55
2023/06/19 03:20:05;;;;;;;9.68;5.28;;;25.40;68.30;;;;;;5044887;28;20037;-55
2023/06/19 03:22:31;;;;;;;10.30;5.38;;;25.40;67.90;;;;;;5044778;28;20051;-55
2023/06/19 03:24:56;;;;;;;9.18;4.82;;;25.40;68.10;;;;;;5044563;28;20034;-55
2023/06/19 03:27:22;;;;;;;9.77;5.65;;;25.30;68.80;;;;;;5044560;28;20085;-55
2023/06/19 03:29:48;;;;;;;7.38;5.25;;;25.30;68.20;;;;;;5045923;28;20055;-55
2023/06/19 03:32:13;;;;;;;8.50;5.43;;;25.30;68.30;;;;;;5045829;28;20033;-55
2023/06/19 03:34:39;;;;;;;16.05;5.00;;;25.30;68.40;;;;;;5044578;28;20031;-56
2023/06/19 03:37:05;;;;;;;16.80;5.45;;;25.30;68.50;;;;;;5044416;28;20033;-55
2023/06/19 03:39:31;;;;;;;35.85;5.70;;;25.30;68.70;;;;;;5044376;28;20033;-55
2023/06/19 03:41:56;;;;;;;8.05;4.65;;;25.30;68.80;;;;;;5044115;28;20124;-55
2023/06/19 03:44:22;;;;;;;9.27;5.43;;;25.30;68.90;;;;;;5027643;28;20451;-55
2023/06/19 03:46:47;;;;;;;13.80;5.07;;;25.30;69.00;;;;;;5045549;28;20025;-55
2023/06/19 03:49:13;;;;;;;16.40;5.82;;;25.30;69.10;;;;;;5027491;28;20481;-55
2023/06/19 03:51:38;;;;;;;7.47;5.18;;;25.20;69.10;;;;;;5044049;28;20030;-55
2023/06/19 03:54:04;;;;;;;14.15;5.65;;;25.20;69.40;;;;;;5043797;28;20029;-55
2023/06/19 03:56:29;;;;;;;12.45;5.45;;;25.20;69.40;;;;;;5043888;28;20025;-55
2023/06/19 03:58:55;;;;;;;11.13;4.82;;;25.10;69.50;;;;;;5045201;28;20017;-55
2023/06/19 04:01:20;;;;;;;8.88;5.63;;;25.10;69.60;;;;;;5043854;28;20103;-55
2023/06/19 04:03:46;;;;;;;10.95;5.47;;;25.10;69.70;;;;;;5060337;28;20037;-55
2023/06/19 04:06:12;;;;;;;10.98;5.80;;;25.10;70.00;;;;;;5044121;28;20033;-55
2023/06/19 04:08:37;;;;;;;7.93;5.07;;;25.10;70.10;;;;;;5043742;28;20048;-55
2023/06/19 04:11:03;;;;;;;5.43;4.22;;;25.10;70.20;;;;;;5027192;28;20029;-55
2023/06/19 04:13:28;;;;;;;12.13;5.30;;;25.10;70.40;;;;;;5026998;28;20032;-55
2023/06/19 04:15:54;;;;;;;7.90;5.30;;;25.10;70.50;;;;;;5045190;28;20462;-55
2023/06/19 04:18:19;;;;;;;10.13;5.30;;;25.10;71.00;;;;;;5045052;28;20036;-55
2023/06/19 04:20:45;;;;;;;11.05;4.95;;;25.10;70.90;;;;;;5043797;28;20029;-54
2023/06/19 04:23:10;;;;;;;16.60;5.45;;;25.10;71.10;;;;;;5044733;28;20041;-53
2023/06/19 04:25:37;;;;;;;19.88;5.40;;;25.10;71.70;;;;;;5043263;28;20457;-54
2023/06/19 04:28:03;;;;;;;9.07;5.53;;;25.00;71.10;;;;;;5043428;28;20203;-54
2023/06/19 04:30:30;;;;;;;15.32;5.70;;;25.00;71.20;;;;;;5044884;28;20041;-54
2023/06/19 04:32:57;;;;;;;8.85;5.25;;;25.00;71.40;;;;;;5043438;28;20030;-54
2023/06/19 04:35:23;;;;;;;7.47;5.22;;;24.90;71.60;;;;;;5043520;28;20036;-54
2023/06/19 04:37:49;;;;;;;37.13;6.00;;;24.90;72.00;;;;;;5043299;28;20075;-54
2023/06/19 04:40:15;;;;;;;9.30;4.88;;;24.90;72.40;;;;;;5043316;28;20029;-54
2023/06/19 04:42:40;;;;;;;8.23;5.30;;;24.90;72.60;;;;;;5043375;28;20458;-54
2023/06/19 04:45:07;;;;;;;9.60;5.07;;;24.90;72.50;;;;;;5044669;28;20029;-54
2023/06/19 04:47:32;;;;;;;7.53;5.43;;;24.90;72.50;;;;;;5043331;28;20025;-54
2023/06/19 04:49:58;;;;;;;8.43;5.07;;;24.90;72.60;;;;;;5026456;28;20029;-54
2023/06/19 04:52:24;;;;;;;9.23;5.60;;;24.90;72.70;;;;;;5042964;28;20037;-54
2023/06/19 04:54:49;;;;;;;7.32;4.47;;;24.90;72.90;;;;;;5044607;28;20025;-54
2023/06/19 04:57:15;;;;;;;9.02;5.18;;;24.80;72.90;;;;;;5044476;28;20053;-54
2023/06/19 04:59:42;;;;;;;8.48;4.80;;;24.80;73.00;;;;;;5026648;28;20034;-54
2023/06/19 05:02:08;;;;;;;10.85;4.85;;;24.80;73.10;;;;;;5043070;28;20049;-54
2023/06/19 05:04:33;;;;;;;8.60;5.18;;;24.80;73.20;;;;;;5042970;28;20041;-54
2023/06/19 05:06:59;;;;;;;6.43;4.78;;;24.80;73.50;;;;;;5044456;28;20056;-54
2023/06/19 05:09:25;;;;;;;12.45;4.70;;;24.70;73.50;;;;;;5044395;28;20044;-54
2023/06/19 05:11:50;;;;;;;9.15;4.38;;;24.70;73.70;;;;;;5044522;28;20025;-54
2023/06/19 05:14:16;;;;;;;9.32;4.70;;;24.70;73.90;;;;;;5044119;28;20029;-54
2023/06/19 05:16:41;;;;;;;6.95;4.68;;;24.70;73.80;;;;;;5044384;28;20025;-54
2023/06/19 05:19:07;;;;;;;12.65;4.60;;;24.60;73.80;;;;;;5044219;28;20034;-54
2023/06/19 05:21:32;;;;;;;13.68;5.20;;;24.60;73.80;;;;;;5042982;28;20113;-54
2023/06/19 05:23:58;;;;;;;12.55;4.95;;;24.60;73.90;;;;;;5042850;28;20500;-54
2023/06/19 05:26:26;;;;;;;5.78;4.63;;;24.60;74.00;;;;;;5042952;28;20053;-54
2023/06/19 05:28:51;;;;;;;4.95;4.30;;;24.60;74.10;;;;;;5042875;28;20052;-54
2023/06/19 05:31:18;;;;;;;8.32;4.40;;;24.60;74.30;;;;;;5044396;28;20029;-54
2023/06/19 05:33:43;;;;;;;10.10;4.65;;;24.50;74.40;;;;;;5045873;28;20025;-54
2023/06/19 05:36:09;;;;;;;7.20;4.40;;;24.50;74.50;;;;;;5048214;28;20036;-55
2023/06/19 05:38:35;;;;;;;7.20;4.70;;;24.50;74.80;;;;;;5046677;28;20477;-54
2023/06/19 05:41:04;;;;;;;12.63;4.88;;;24.50;74.60;;;;;;5048060;28;20030;-55
2023/06/19 05:43:31;;;;;;;7.32;4.63;;;24.50;74.90;;;;;;5047994;28;20033;-55
2023/06/19 05:45:58;;;;;;;9.55;4.82;;;24.50;75.10;;;;;;5046652;28;20029;-55
2023/06/19 05:48:24;;;;;;;5.22;4.28;;;24.50;75.20;;;;;;5047868;28;20029;-55
2023/06/19 05:50:50;;;;;;;6.60;4.57;;;24.50;75.30;;;;;;5047895;28;20040;-55
2023/06/19 05:53:16;;;;;;;7.28;4.70;;;24.50;75.30;;;;;;5047672;28;20053;-55
2023/06/19 05:55:41;;;;;;;7.75;4.65;;;24.40;75.40;;;;;;5046296;28;20036;-55
2023/06/19 05:58:07;;;;;;;7.50;4.70;;;24.40;75.50;;;;;;5046330;28;20039;-55
2023/06/19 06:00:32;;;;;;;6.90;4.60;;;24.40;75.70;;;;;;5046493;28;20079;-55
2023/06/19 06:03:02;;;;;;;8.48;4.25;;;24.40;76.00;;;;;;5046148;28;20095;-55
2023/06/19 06:05:27;;;;;;;9.40;4.93;;;24.40;76.20;;;;;;5045979;28;20030;-55
2023/06/19 06:07:53;;;;;;;9.00;4.45;;;24.40;76.40;;;;;;5046050;28;20025;-55
2023/06/19 06:10:20;;;;;;;9.15;4.95;;;24.40;76.80;;;;;;5046097;28;20351;-55
2023/06/19 06:12:46;;;;;;;7.65;4.38;;;24.40;76.70;;;;;;5029531;28;20040;-55
2023/06/19 06:15:11;;;;;;;9.07;4.50;;;24.40;76.80;;;;;;5047279;28;20128;-55
2023/06/19 06:17:37;;;;;;;16.30;5.25;;;24.40;76.90;;;;;;5045901;28;20025;-55
2023/06/19 06:20:08;;;;;;;10.35;4.50;;;24.40;77.50;;;;;;5046364;28;20025;-55
2023/06/19 06:22:33;;;;;;;22.98;6.45;;;24.40;77.10;;;;;;5046293;28;20025;-55
2023/06/19 06:24:59;;;;;;;9.60;5.28;;;24.40;77.50;;;;;;5046051;28;20026;-54
2023/06/19 06:27:24;;;;;;;13.05;5.40;;;24.40;77.50;;;;;;5047221;28;20044;-55
2023/06/19 06:29:50;;;;;;;11.15;5.22;;;24.40;77.40;;;;;;5047415;28;20025;-55
2023/06/19 06:32:15;;;;;;;266.80;29.50;;;24.40;77.80;;;;;;5045715;28;20037;-55
2023/06/19 06:34:41;;;;;;;47.90;8.07;;;24.40;77.80;;;;;;5046062;28;20091;-55
2023/06/19 06:37:06;;;;;;;14.20;5.90;;;24.40;78.20;;;;;;5045715;28;20018;-55
2023/06/19 06:39:32;;;;;;;60.15;6.32;;;24.40;77.50;;;;;;5047330;28;20030;-55
2023/06/19 06:41:57;;;;;;;19.92;5.75;;;24.40;77.80;;;;;;5045455;28;20026;-55
2023/06/19 06:44:23;;;;;;;16.88;5.32;;;24.40;77.70;;;;;;5045594;28;20139;-55
2023/06/19 06:46:48;;;;;;;17.85;5.88;;;24.40;77.80;;;;;;5045548;28;20041;-55
2023/06/19 06:49:15;;;;;;;23.05;6.45;;;24.40;77.50;;;;;;5046790;28;20063;-55
2023/06/19 06:51:41;;;;;;;32.75;6.82;;;24.50;77.70;;;;;;5045358;28;20047;-55
2023/06/19 06:54:07;;;;;;;21.38;6.70;;;24.50;77.50;;;;;;5028813;28;20053;-55
2023/06/19 06:56:32;;;;;;;205.48;27.88;;;24.50;77.40;;;;;;5045217;28;20030;-55
2023/06/19 06:58:58;;;;;;;248.23;33.10;;;24.50;77.70;;;;;;5045007;28;20034;-55
2023/06/19 07:01:23;;;;;;;109.45;14.27;;;24.60;77.80;;;;;;5028272;28;20029;-55
2023/06/19 07:03:49;;;;;;;106.63;12.25;;;24.60;78.40;;;;;;5044824;28;20120;-55
2023/06/19 07:06:14;;;;;;;51.17;11.13;;;24.60;78.40;;;;;;5044694;28;20044;-55
2023/06/19 07:08:40;;;;;;;94.70;13.18;;;24.60;77.20;;;;;;5044860;28;20033;-55
2023/06/19 07:11:09;;;;;;;52.30;11.85;;;24.60;77.70;;;;;;5046325;28;20081;-55
2023/06/19 07:13:34;;;;;;;78.05;12.00;;;24.60;77.60;;;;;;5044674;28;20089;-55
2023/06/19 07:16:01;;;;;;;56.72;11.73;;;24.60;77.30;;;;;;5044767;28;20021;-55
2023/06/19 07:18:27;;;;;;;64.45;11.25;;;24.70;77.20;;;;;;5044744;28;20103;-55
2023/06/19 07:20:52;;;;;;;75.65;11.13;;;24.70;77.00;;;;;;5044850;28;20068;-55
2023/06/19 07:23:18;;;;;;;63.72;11.15;;;24.70;77.20;;;;;;5031254;28;20029;-55
2023/06/19 07:25:45;;;;;;;58.60;10.23;;;24.70;77.10;;;;;;5025919;28;20089;-55
2023/06/19 07:28:11;;;;;;;50.45;10.63;;;24.80;77.40;;;;;;5007586;28;20057;-55
2023/06/19 07:30:37;;;;;;;72.00;11.50;;;24.80;77.20;;;;;;5025181;28;20045;-55
2023/06/19 07:33:02;;;;;;;49.92;10.43;;;24.80;77.20;;;;;;5031743;28;20347;-55
2023/06/19 07:35:28;;;;;;;59.83;10.95;;;24.90;77.40;;;;;;5045644;28;20029;-55
2023/06/19 07:37:53;;;;;;;58.55;11.70;;;24.90;78.60;;;;;;5045582;28;20052;-55
2023/06/19 07:40:19;;;;;;;72.65;11.55;;;24.90;78.40;;;;;;5039976;28;20370;-55
2023/06/19 07:42:45;;;;;;;61.08;10.85;;;25.00;79.10;;;;;;5038692;28;20056;-55
2023/06/19 07:45:11;;;;;;;58.35;11.05;;;25.00;79.50;;;;;;5046410;28;20120;-55
2023/06/19 07:47:37;;;;;;;50.78;11.55;;;25.00;78.80;;;;;;5045508;28;20045;-55
2023/06/19 07:50:02;;;;;;;45.40;10.52;;;25.00;79.10;;;;;;5045190;28;20029;-55
2023/06/19 07:52:28;;;;;;;75.50;12.15;;;25.00;78.80;;;;;;5045590;28;20089;-55
2023/06/19 07:54:57;;;;;;;62.63;11.77;;;25.00;79.10;;;;;;5029498;28;20030;-55
2023/06/19 07:57:23;;;;;;;53.08;11.07;;;25.00;78.90;;;;;;5025632;28;20030;-55
2023/06/19 07:59:49;;;;;;;56.38;11.00;;;25.10;79.50;;;;;;5024328;28;20179;-55
2023/06/19 08:02:14;;;;;;;62.78;11.15;;;25.00;79.90;;;;;;5024243;28;20113;-55
2023/06/19 08:04:40;;;;;;;55.33;11.23;;;25.10;80.20;;;;;;5036661;28;20037;-55
2023/06/19 08:07:06;;;;;;;70.40;11.43;;;25.10;80.50;;;;;;5023965;28;20022;-55
2023/06/19 08:09:31;;;;;;;52.20;11.05;;;25.10;80.10;;;;;;5028238;28;20072;-55
2023/06/19 08:11:57;;;;;;;45.72;9.82;;;25.10;79.60;;;;;;5043695;28;20029;-55
2023/06/19 08:14:22;;;;;;;45.53;10.38;;;25.10;79.80;;;;;;5042811;28;20037;-55
2023/06/19 08:16:48;;;;;;;55.03;9.98;;;25.10;79.60;;;;;;5031994;28;20146;-55
2023/06/19 08:19:13;;;;;;;36.67;9.55;;;25.10;79.80;;;;;;5024566;28;20058;-55
2023/06/19 08:21:39;;;;;;;49.40;9.43;;;25.20;80.80;;;;;;5024551;28;20034;-55
2023/06/19 08:24:05;;;;;;;40.53;9.63;;;25.10;81.20;;;;;;5024598;28;20034;-55
2023/06/19 08:26:30;;;;;;;46.25;9.38;;;25.10;80.30;;;;;;5025695;28;20029;-55
2023/06/19 08:28:56;;;;;;;57.30;9.32;;;25.20;80.70;;;;;;5015453;28;20041;-55
2023/06/19 08:31:27;;;;;;;38.13;9.55;;;25.20;80.80;;;;;;5031061;28;20026;-55
2023/06/19 08:33:56;;;;;;;40.17;9.07;;;25.20;82.00;;;;;;5043335;28;20041;-55
2023/06/19 08:36:21;;;;;;;42.28;8.98;;;25.20;81.90;;;;;;5043122;28;20518;-55
2023/06/19 08:38:49;;;;;;;22.50;7.55;;;25.20;82.60;;;;;;5043287;28;20025;-55
2023/06/19 08:41:15;;;;;;;17.63;7.47;;;25.20;82.40;;;;;;5044282;28;20029;-55
2023/06/19 08:43:42;;;;;;;23.75;7.85;;;25.20;82.50;;;;;;5043103;28;20030;-55
2023/06/19 08:46:11;;;;;;;33.20;8.75;;;25.20;82.00;;;;;;5042751;28;20079;-54
2023/06/19 08:48:37;;;;;;;21.13;7.15;;;25.30;82.60;;;;;;5043528;28;20029;-55
2023/06/19 08:51:04;;;;;;;29.30;8.32;;;25.30;83.10;;;;;;5026712;28;20092;-55
2023/06/19 08:53:32;;;;;;;19.80;7.50;;;25.30;82.90;;;;;;5043422;28;20044;-54
2023/06/19 08:55:58;;;;;;;17.63;7.28;;;25.30;83.10;;;;;;5044599;28;20029;-55
2023/06/19 08:58:24;;;;;;;35.30;6.93;;;25.30;83.10;;;;;;5043039;28;20077;-55
2023/06/19 09:00:49;;;;;;;23.52;6.72;;;25.30;83.20;;;;;;5044557;28;20083;-55
2023/06/19 09:03:22;;;;;;;27.05;7.03;;;25.30;82.90;;;;;;5044421;28;20489;-55
2023/06/19 09:05:50;;;;;;;16.13;6.47;;;25.30;82.60;;;;;;5043025;28;20030;-54
2023/06/19 09:08:16;;;;;;;48.05;7.15;;;25.40;82.70;;;;;;5045254;28;20034;-54
2023/06/19 09:10:42;;;;;;;13.35;6.10;;;25.40;82.50;;;;;;5047238;28;20053;-55
2023/06/19 09:13:08;;;;;;;19.80;6.53;;;25.40;82.20;;;;;;5046894;28;20060;-54
2023/06/19 09:15:37;;;;;;;18.33;6.80;;;25.40;82.50;;;;;;5048477;28;20072;-55
2023/06/19 09:18:07;;;;;;;15.07;6.63;;;25.40;82.20;;;;;;5048678;28;20079;-54
2023/06/19 09:20:40;;;;;;;23.60;6.38;;;25.50;81.90;;;;;;5030535;28;20040;-55
2023/06/19 09:23:05;;;;;;;20.95;6.32;;;25.50;81.90;;;;;;5046750;28;20029;-55
2023/06/19 09:25:31;;;;;;;21.27;6.13;;;25.50;81.90;;;;;;5030175;28;20064;-55
2023/06/19 09:27:57;;;;;;;29.83;7.93;;;25.50;81.90;;;;;;5046804;28;20035;-55
2023/06/19 09:30:22;;;;;;;16.08;6.50;;;25.60;82.20;;;;;;5030032;28;20071;-55
2023/06/19 09:32:48;;;;;;;15.52;6.15;;;25.60;82.60;;;;;;5046508;28;20021;-54
2023/06/19 09:35:16;;;;;;;23.50;6.93;;;25.60;82.10;;;;;;5048095;28;20048;-55
2023/06/19 09:37:42;;;;;;;23.25;7.53;;;25.60;82.90;;;;;;5046703;28;20022;-55
2023/06/19 09:40:10;;;;;;;16.52;6.35;;;25.60;83.20;;;;;;5046554;28;20084;-55
2023/06/19 09:42:42;;;;;;;27.02;7.45;;;25.60;82.80;;;;;;5047674;28;20026;-55
2023/06/19 09:45:09;;;;;;;26.55;7.70;;;25.60;83.10;;;;;;5046285;28;20465;-55
2023/06/19 09:47:45;;;;;;;40.78;9.55;;;25.60;83.40;;;;;;5046329;28;20030;-55
2023/06/19 09:50:15;;;;;;;45.67;9.70;;;25.60;83.90;;;;;;5046434;28;20030;-55
2023/06/19 09:52:42;;;;;;;70.03;10.68;;;25.60;84.00;;;;;;5046352;28;20021;-55
2023/06/19 09:55:09;;;;;;;102.22;10.55;;;25.60;85.10;;;;;;5045854;28;20101;-55
2023/06/19 09:57:34;;;;;;;95.22;13.25;;;25.60;84.40;;;;;;5045965;28;20025;-55
2023/06/19 10:00:08;;;;;;;77.07;12.45;;;25.60;84.40;;;;;;5046151;28;20029;-55
2023/06/19 10:02:34;;;;;;;44.15;9.68;;;25.60;84.70;;;;;;5046050;28;20425;-55
2023/06/19 10:05:00;;;;;;;81.35;12.27;;;25.60;85.40;;;;;;5045891;28;20029;-55
2023/06/19 10:07:32;;;;;;;42.90;10.15;;;25.70;86.00;;;;;;5046088;28;20367;-54
2023/06/19 10:09:59;;;;;;;41.95;9.60;;;25.70;86.30;;;;;;5046148;28;20515;-54
2023/06/19 10:12:58;;;;;;;30.88;10.10;;;25.70;86.30;;;;;;5045458;28;20093;-55
2023/06/19 10:15:24;;;;;;;32.72;8.52;;;25.70;85.80;;;;;;5034557;28;20045;-55
2023/06/19 10:18:00;;;;;;;44.92;9.20;;;25.80;85.60;;;;;;5045153;28;20021;-55
2023/06/19 10:20:32;;;;;;;;;;;25.80;85.60;;;;;;5045530;28;20041;-55
2023/06/19 10:23:04;;;;;;;34.42;8.35;;;25.80;85.40;;;;;;5045081;28;19919;-55
2023/06/19 10:25:37;;;;;;;30.35;8.60;;;25.80;85.00;;;;;;5045610;28;20052;-55
2023/06/19 10:28:07;;;;;;;41.42;9.95;;;25.80;84.80;;;;;;5045531;28;20034;-55
2023/06/19 10:30:33;;;;;;;40.47;10.07;;;25.90;84.10;;;;;;5046714;28;20033;-55
2023/06/19 10:32:59;;;;;;;77.35;13.05;;;26.00;83.50;;;;;;5046966;28;20077;-55
2023/06/19 10:35:24;;;;;;;83.25;14.18;;;26.00;83.10;;;;;;5045283;28;20052;-55
2023/06/19 10:37:50;;;;;;;76.20;13.00;;;26.00;82.50;;;;;;5045088;28;20029;-55
2023/06/19 10:40:16;;;;;;;102.35;14.75;;;26.10;82.30;;;;;;5028844;28;20025;-55
2023/06/19 10:42:42;;;;;;;70.82;13.68;;;26.20;82.10;;;;;;5045360;28;20036;-55
2023/06/19 10:45:17;;;;;;;57.05;11.45;;;26.20;81.90;;;;;;5046597;28;20101;-55
2023/06/19 10:47:43;;;;;;;;;;;26.30;80.30;;;;;;5045522;28;20047;-53
2023/06/19 10:50:12;;;;;;;;;;;26.40;80.00;;;;;;5045334;28;19931;-53
2023/06/19 10:52:40;;;;;;;80.97;13.25;;;26.40;80.00;;;;;;5046088;28;19909;-55
2023/06/19 10:55:06;;;;;;;54.92;11.57;;;26.50;79.50;;;;;;5044718;28;20498;-54
2023/06/19 10:57:32;;;;;;;80.75;12.30;;;26.60;79.00;;;;;;5028238;28;20049;-55
2023/06/19 10:59:58;;;;;;;62.97;12.77;;;26.60;78.80;;;;;;5028540;28;20040;-55
2023/06/19 11:02:23;;;;;;;101.75;15.68;;;26.70;78.60;;;;;;5028461;28;20025;-55
2023/06/19 11:04:51;;;;;;;88.47;14.30;;;26.70;78.30;;;;;;5044786;28;20121;-55
2023/06/19 11:07:16;;;;;;;97.35;15.73;;;26.80;78.20;;;;;;5044877;28;20040;-55
2023/06/19 11:09:42;;;;;;;85.03;14.45;;;26.90;77.90;;;;;;5028171;28;20021;-55
2023/06/19 11:12:08;;;;;;;94.40;14.45;;;26.90;77.40;;;;;;5044446;28;20453;-55
2023/06/19 11:14:39;;;;;;;84.78;14.30;;;27.00;76.90;;;;;;5045863;28;20437;-54
2023/06/19 11:17:05;;;;;;;104.80;15.68;;;27.10;76.50;;;;;;5045762;28;20025;-55
2023/06/19 11:19:33;;;;;;;124.60;17.60;;;27.20;75.90;;;;;;5028122;28;20497;-55
2023/06/19 11:21:59;;;;;;;71.50;12.20;;;27.30;75.40;;;;;;5011748;28;20060;-56
2023/06/19 11:24:24;;;;;;;80.38;14.48;;;27.30;74.50;;;;;;5043255;28;20033;-54
2023/06/19 11:26:50;;;;;;;81.13;13.68;;;27.40;73.70;;;;;;5041937;28;20044;-55
2023/06/19 11:29:18;;;;;;;70.75;12.27;;;27.40;73.30;;;;;;5043668;28;20037;-55
2023/06/19 11:31:44;;;;;;;72.38;11.60;;;27.50;72.80;;;;;;5043079;28;20029;-55
2023/06/19 11:34:10;;;;;;;92.82;13.90;;;27.50;72.60;;;;;;5044986;28;20045;-55
2023/06/19 11:36:39;;;;;;;106.25;15.52;;;27.60;71.40;;;;;;5045314;28;20041;-55
2023/06/19 11:39:05;;;;;;;90.70;13.50;;;27.70;70.00;;;;;;5044322;28;20036;-54
2023/06/19 11:41:31;;;;;;;62.03;11.68;;;27.80;69.20;;;;;;5023690;28;20087;-55
2023/06/19 11:44:04;;;;;;;52.40;9.63;;;27.80;68.40;;;;;;5039676;28;20034;-55
2023/06/19 11:46:30;;;;;;;64.57;9.32;;;27.90;68.10;;;;;;5040867;28;20048;-55
2023/06/19 11:49:16;;;;;;;51.55;8.48;;;28.00;68.10;;;;;;5042657;28;20477;-55
2023/06/19 11:51:42;;;;;;;44.65;9.55;;;28.10;66.80;;;;;;5044881;28;20183;-55
2023/06/19 11:54:08;;;;;;;31.85;7.43;;;28.10;66.30;;;;;;5044570;28;20029;-55
2023/06/19 11:56:37;;;;;;;30.42;7.40;;;28.20;65.30;;;;;;5041861;28;20021;-55
2023/06/19 11:59:05;;;;;;;29.80;6.55;;;28.20;64.50;;;;;;5041633;28;20081;-55
2023/06/19 12:01:32;;;;;;;33.42;6.50;;;28.30;63.30;;;;;;5043322;28;20191;-54
2023/06/19 12:03:57;;;;;;;27.27;5.43;;;28.40;63.20;;;;;;5036785;28;20030;-54
2023/06/19 12:06:23;;;;;;;25.80;6.15;;;28.50;63.20;;;;;;5039701;28;20025;-55
2023/06/19 12:08:48;;;;;;;23.63;5.78;;;28.60;62.70;;;;;;5041339;28;20393;-55
2023/06/19 12:11:14;;;;;;;20.13;5.93;;;28.60;61.60;;;;;;5039231;28;20060;-55
2023/06/19 12:13:41;;;;;;;19.95;5.38;;;28.70;61.50;;;;;;5037986;28;20044;-54
2023/06/19 12:16:10;;;;;;;20.42;5.70;;;28.80;60.90;;;;;;5050132;28;20294;-54
2023/06/19 12:18:35;;;;;;;25.20;5.40;;;28.80;60.70;;;;;;5030248;28;20030;-55
2023/06/19 12:21:01;;;;;;;18.67;5.57;;;28.80;60.40;;;;;;5048112;28;20040;-55
2023/06/19 12:23:26;;;;;;;24.20;5.63;;;28.90;60.30;;;;;;5037960;28;20033;-55
2023/06/19 12:25:52;;;;;;;53.38;7.47;;;29.00;60.30;;;;;;5034458;28;20119;-55
2023/06/19 12:28:18;;;;;;;36.35;7.20;;;29.00;60.20;;;;;;5052410;28;20037;-55
2023/06/19 12:30:49;;;;;;;79.20;11.52;;;29.10;60.10;;;;;;5027166;28;20022;-55
2023/06/19 12:33:14;;;;;;;42.10;8.18;;;29.20;60.20;;;;;;5052272;28;20071;-55
2023/06/19 12:35:41;;;;;;;24.83;7.20;;;29.20;60.20;;;;;;5038993;28;20033;-55